sensor_id;sensor_type;location;lat;lon;timestamp;pressure;altitude;pressure_sealevel;temperature;humidity
42633;BME280;28261;53.304;-6.284;2023-04-29T00:01:03;101235.91;;;10.17;100.00
42633;BME280;28261;53.304;-6.284;2023-04-29T00:03:08;101230.75;;;10.14;100.00
42633;BME280;28261;53.304;-6.284;2023-04-29T00:05:13;101236.06;;;10.14;100.00
42633;BME280;28261;53.304;-6.284;2023-04-29T00:07:19;101235.22;;;10.13;100.00
42633;BME280;28261;53.304;-6.284;2023-04-29T00:09:24;101233.50;;;10.12;100.00
42633;BME280;28261;53.304;-6.284;2023-04-29T00:11:28;101239.66;;;10.13;100.00
42633;BME280;28261;53.304;-6.284;2023-04-29T00:13:33;101244.19;;;10.11;100.00
42633;BME280;28261;53.304;-6.284;2023-04-29T00:15:40;101239.81;;;10.10;100.00
42633;BME280;28261;53.304;-6.284;2023-04-29T00:17:44;101242.47;;;10.10;100.00
42633;BME280;28261;53.304;-6.284;2023-04-29T00:19:48;101242.56;;;10.08;100.00
42633;BME280;28261;53.304;-6.284;2023-04-29T00:21:54;101247.84;;;10.08;100.00
42633;BME280;28261;53.304;-6.284;2023-04-29T00:23:58;101246.13;;;10.07;100.00
42633;BME280;28261;53.304;-6.284;2023-04-29T00:26:03;101242.66;;;10.07;100.00
42633;BME280;28261;53.304;-6.284;2023-04-29T00:28:07;101235.72;;;10.04;100.00
42633;BME280;28261;53.304;-6.284;2023-04-29T00:30:12;101248.97;;;10.04;100.00
42633;BME280;28261;53.304;-6.284;2023-04-29T00:32:19;101245.56;;;10.02;100.00
42633;BME280;28261;53.304;-6.284;2023-04-29T00:34:23;101245.66;;;10.01;100.00
42633;BME280;28261;53.304;-6.284;2023-04-29T00:36:28;101248.56;;;9.96;100.00
42633;BME280;28261;53.304;-6.284;2023-04-29T00:38:34;101251.28;;;9.94;100.00
42633;BME280;28261;53.304;-6.284;2023-04-29T00:40:38;101245.31;;;9.91;100.00
42633;BME280;28261;53.304;-6.284;2023-04-29T00:42:43;101252.50;;;9.89;100.00
42633;BME280;28261;53.304;-6.284;2023-04-29T00:44:47;101249.94;;;9.87;100.00
42633;BME280;28261;53.304;-6.284;2023-04-29T00:46:52;101240.28;;;9.86;100.00
42633;BME280;28261;53.304;-6.284;2023-04-29T00:48:58;101248.31;;;9.85;100.00
42633;BME280;28261;53.304;-6.284;2023-04-29T00:51:04;101245.66;;;9.85;100.00
42633;BME280;28261;53.304;-6.284;2023-04-29T00:53:10;101244.72;;;9.86;100.00
42633;BME280;28261;53.304;-6.284;2023-04-29T00:55:15;101245.56;;;9.86;100.00
42633;BME280;28261;53.304;-6.284;2023-04-29T00:57:20;101243.84;;;9.85;100.00
42633;BME280;28261;53.304;-6.284;2023-04-29T00:59:26;101246.69;;;9.82;100.00
42633;BME280;28261;53.304;-6.284;2023-04-29T01:01:37;101250.34;;;9.79;100.00
42633;BME280;28261;53.304;-6.284;2023-04-29T01:03:43;101245.31;;;9.75;100.00
42633;BME280;28261;53.304;-6.284;2023-04-29T01:05:54;101250.84;;;9.70;100.00
42633;BME280;28261;53.304;-6.284;2023-04-29T01:08:12;101251.97;;;9.66;100.00
42633;BME280;28261;53.304;-6.284;2023-04-29T01:10:26;101247.75;;;9.62;100.00
42633;BME280;28261;53.304;-6.284;2023-04-29T01:12:36;101249.66;;;9.60;100.00
42633;BME280;28261;53.304;-6.284;2023-04-29T01:14:56;101249.88;;;9.55;100.00
42633;BME280;28261;53.304;-6.284;2023-04-29T01:17:07;101248.25;;;9.53;100.00
42633;BME280;28261;53.304;-6.284;2023-04-29T01:19:18;101238.78;;;9.48;100.00
42633;BME280;28261;53.304;-6.284;2023-04-29T01:21:31;101241.44;;;9.48;100.00
42633;BME280;28261;53.304;-6.284;2023-04-29T01:23:38;101240.59;;;9.48;100.00
42633;BME280;28261;53.304;-6.284;2023-04-29T01:25:43;101244.06;;;9.48;100.00
42633;BME280;28261;53.304;-6.284;2023-04-29T01:28:06;101237.84;;;9.49;100.00
42633;BME280;28261;53.304;-6.284;2023-04-29T01:30:27;101243.16;;;9.49;100.00
42633;BME280;28261;53.304;-6.284;2023-04-29T01:32:42;101235.13;;;9.51;100.00
42633;BME280;28261;53.304;-6.284;2023-04-29T01:34:58;101235.03;;;9.53;100.00
42633;BME280;28261;53.304;-6.284;2023-04-29T01:37:09;101237.75;;;9.51;100.00
42633;BME280;28261;53.304;-6.284;2023-04-29T01:39:28;101242.22;;;9.51;100.00
42633;BME280;28261;53.304;-6.284;2023-04-29T01:41:52;101238.78;;;9.48;100.00
42633;BME280;28261;53.304;-6.284;2023-04-29T01:44:07;101237.94;;;9.48;100.00
42633;BME280;28261;53.304;-6.284;2023-04-29T01:46:16;101237.09;;;9.47;100.00
42633;BME280;28261;53.304;-6.284;2023-04-29T01:48:23;101231.88;;;9.46;100.00
42633;BME280;28261;53.304;-6.284;2023-04-29T01:50:29;101243.31;;;9.46;100.00
42633;BME280;28261;53.304;-6.284;2023-04-29T01:52:45;101246.06;;;9.45;100.00
42633;BME280;28261;53.304;-6.284;2023-04-29T01:54:52;101246.13;;;9.43;100.00
42633;BME280;28261;53.304;-6.284;2023-04-29T01:56:57;101251.44;;;9.43;100.00
42633;BME280;28261;53.304;-6.284;2023-04-29T01:59:09;101246.22;;;9.42;100.00
42633;BME280;28261;53.304;-6.284;2023-04-29T02:01:33;101245.34;;;9.41;100.00
42633;BME280;28261;53.304;-6.284;2023-04-29T02:03:38;101242.78;;;9.40;100.00
42633;BME280;28261;53.304;-6.284;2023-04-29T02:05:44;101250.81;;;9.38;100.00
42633;BME280;28261;53.304;-6.284;2023-04-29T02:07:48;101251.00;;;9.35;100.00
42633;BME280;28261;53.304;-6.284;2023-04-29T02:09:54;101252.09;;;9.31;100.00
42633;BME280;28261;53.304;-6.284;2023-04-29T02:11:58;101254.88;;;9.28;100.00
42633;BME280;28261;53.304;-6.284;2023-04-29T02:14:04;101252.31;;;9.26;100.00
42633;BME280;28261;53.304;-6.284;2023-04-29T02:16:08;101251.56;;;9.24;100.00
42633;BME280;28261;53.304;-6.284;2023-04-29T02:18:16;101258.63;;;9.24;100.00
42633;BME280;28261;53.304;-6.284;2023-04-29T02:20:22;101259.72;;;9.20;100.00
42633;BME280;28261;53.304;-6.284;2023-04-29T02:22:26;101249.22;;;9.18;100.00
42633;BME280;28261;53.304;-6.284;2023-04-29T02:24:31;101251.88;;;9.18;100.00
42633;BME280;28261;53.304;-6.284;2023-04-29T02:26:36;101257.16;;;9.18;100.00
42633;BME280;28261;53.304;-6.284;2023-04-29T02:28:40;101247.44;;;9.19;100.00
42633;BME280;28261;53.304;-6.284;2023-04-29T02:30:44;101251.78;;;9.20;100.00
42633;BME280;28261;53.304;-6.284;2023-04-29T02:32:49;101244.84;;;9.17;100.00
42633;BME280;28261;53.304;-6.284;2023-04-29T02:34:53;101246.66;;;9.17;100.00
42633;BME280;28261;53.304;-6.284;2023-04-29T02:36:56;101244.09;;;9.15;100.00
42633;BME280;28261;53.304;-6.284;2023-04-29T02:39:00;101251.19;;;9.14;100.00
42633;BME280;28261;53.304;-6.284;2023-04-29T02:41:04;101249.47;;;9.13;100.00
42633;BME280;28261;53.304;-6.284;2023-04-29T02:43:10;101257.59;;;9.10;100.00
42633;BME280;28261;53.304;-6.284;2023-04-29T02:45:14;101260.38;;;9.07;100.00
42633;BME280;28261;53.304;-6.284;2023-04-29T02:47:19;101260.53;;;9.04;100.00
42633;BME280;28261;53.304;-6.284;2023-04-29T02:49:23;101259.81;;;9.01;100.00
42633;BME280;28261;53.304;-6.284;2023-04-29T02:51:27;101259.91;;;8.99;100.00
42633;BME280;28261;53.304;-6.284;2023-04-29T02:53:32;101259.81;;;9.01;100.00
42633;BME280;28261;53.304;-6.284;2023-04-29T02:55:36;101264.28;;;9.00;100.00
42633;BME280;28261;53.304;-6.284;2023-04-29T02:57:44;101258.97;;;9.00;100.00
42633;BME280;28261;53.304;-6.284;2023-04-29T02:59:50;101258.97;;;9.00;100.00
42633;BME280;28261;53.304;-6.284;2023-04-29T03:01:54;101255.50;;;9.00;100.00
42633;BME280;28261;53.304;-6.284;2023-04-29T03:03:59;101260.69;;;9.01;100.00
42633;BME280;28261;53.304;-6.284;2023-04-29T03:06:03;101251.75;;;9.04;100.00
42633;BME280;28261;53.304;-6.284;2023-04-29T03:08:07;101255.06;;;9.07;100.00
42633;BME280;28261;53.304;-6.284;2023-04-29T03:10:11;101263.81;;;9.09;100.00
42633;BME280;28261;53.304;-6.284;2023-04-29T03:12:15;101258.50;;;9.09;100.00
42633;BME280;28261;53.304;-6.284;2023-04-29T03:14:20;101271.56;;;9.12;100.00
42633;BME280;28261;53.304;-6.284;2023-04-29T03:16:26;101276.69;;;9.15;100.00
42633;BME280;28261;53.304;-6.284;2023-04-29T03:18:31;101271.19;;;9.20;100.00
42633;BME280;28261;53.304;-6.284;2023-04-29T03:20:33;101272.00;;;9.21;100.00
42633;BME280;28261;53.304;-6.284;2023-04-29T03:22:41;101283.38;;;9.23;100.00
42633;BME280;28261;53.304;-6.284;2023-04-29T03:24:46;101282.44;;;9.24;100.00
42633;BME280;28261;53.304;-6.284;2023-04-29T03:26:51;101290.38;;;9.24;100.00
42633;BME280;28261;53.304;-6.284;2023-04-29T03:28:58;101286.72;;;9.26;100.00
42633;BME280;28261;53.304;-6.284;2023-04-29T03:31:04;101280.41;;;9.29;100.00
42633;BME280;28261;53.304;-6.284;2023-04-29T03:33:09;101282.81;;;9.34;100.00
42633;BME280;28261;53.304;-6.284;2023-04-29T03:35:13;101276.56;;;9.35;100.00
42633;BME280;28261;53.304;-6.284;2023-04-29T03:37:56;101281.94;;;9.33;100.00
42633;BME280;28261;53.304;-6.284;2023-04-29T03:40:06;101280.50;;;9.27;100.00
42633;BME280;28261;53.304;-6.284;2023-04-29T03:42:19;101290.06;;;9.30;100.00
42633;BME280;28261;53.304;-6.284;2023-04-29T03:44:24;101283.75;;;9.32;100.00
42633;BME280;28261;53.304;-6.284;2023-04-29T03:46:29;101276.50;;;9.36;100.00
42633;BME280;28261;53.304;-6.284;2023-04-29T03:48:37;101276.34;;;9.39;100.00
42633;BME280;28261;53.304;-6.284;2023-04-29T03:50:43;101275.16;;;9.45;100.00
42633;BME280;28261;53.304;-6.284;2023-04-29T03:52:47;101282.00;;;9.49;100.00
42633;BME280;28261;53.304;-6.284;2023-04-29T03:54:52;101270.41;;;9.52;100.00
42633;BME280;28261;53.304;-6.284;2023-04-29T03:56:56;101271.06;;;9.55;100.00
42633;BME280;28261;53.304;-6.284;2023-04-29T03:59:01;101267.31;;;9.59;100.00
42633;BME280;28261;53.304;-6.284;2023-04-29T04:01:06;101273.47;;;9.60;100.00
42633;BME280;28261;53.304;-6.284;2023-04-29T04:03:17;101267.16;;;9.62;100.00
42633;BME280;28261;53.304;-6.284;2023-04-29T04:05:23;101268.00;;;9.63;100.00
42633;BME280;28261;53.304;-6.284;2023-04-29T04:07:33;101269.72;;;9.64;100.00
42633;BME280;28261;53.304;-6.284;2023-04-29T04:09:57;101276.75;;;9.65;100.00
42633;BME280;28261;53.304;-6.284;2023-04-29T04:12:01;101278.50;;;9.64;100.00
42633;BME280;28261;53.304;-6.284;2023-04-29T04:14:05;101275.88;;;9.64;100.00
42633;BME280;28261;53.304;-6.284;2023-04-29T04:16:10;101278.44;;;9.66;100.00
42633;BME280;28261;53.304;-6.284;2023-04-29T04:18:14;101280.94;;;9.69;100.00
42633;BME280;28261;53.304;-6.284;2023-04-29T04:20:18;101272.81;;;9.72;100.00
42633;BME280;28261;53.304;-6.284;2023-04-29T04:22:25;101275.28;;;9.75;100.00
42633;BME280;28261;53.304;-6.284;2023-04-29T04:24:44;101275.19;;;9.77;100.00
42633;BME280;28261;53.304;-6.284;2023-04-29T04:26:48;101269.91;;;9.77;100.00
42633;BME280;28261;53.304;-6.284;2023-04-29T04:29:00;101276.06;;;9.77;100.00
42633;BME280;28261;53.304;-6.284;2023-04-29T04:31:20;101277.63;;;9.81;100.00
42633;BME280;28261;53.304;-6.284;2023-04-29T04:33:24;101274.00;;;9.82;100.00
42633;BME280;28261;53.304;-6.284;2023-04-29T04:35:28;101269.50;;;9.85;100.00
42633;BME280;28261;53.304;-6.284;2023-04-29T04:37:34;101273.84;;;9.86;100.00
42633;BME280;28261;53.304;-6.284;2023-04-29T04:39:39;101280.84;;;9.87;100.00
42633;BME280;28261;53.304;-6.284;2023-04-29T04:41:46;101281.72;;;9.87;100.00
42633;BME280;28261;53.304;-6.284;2023-04-29T04:43:55;101281.72;;;9.87;100.00
42633;BME280;28261;53.304;-6.284;2023-04-29T04:46:15;101276.31;;;9.89;100.00
42633;BME280;28261;53.304;-6.284;2023-04-29T04:48:37;101274.53;;;9.89;100.00
42633;BME280;28261;53.304;-6.284;2023-04-29T04:50:44;101267.50;;;9.88;100.00
42633;BME280;28261;53.304;-6.284;2023-04-29T04:52:53;101279.91;;;9.88;100.00
42633;BME280;28261;53.304;-6.284;2023-04-29T04:55:15;101271.03;;;9.89;100.00
42633;BME280;28261;53.304;-6.284;2023-04-29T04:57:23;101276.41;;;9.87;100.00
42633;BME280;28261;53.304;-6.284;2023-04-29T04:59:30;101276.31;;;9.89;100.00
42633;BME280;28261;53.304;-6.284;2023-04-29T05:01:36;101268.38;;;9.89;100.00
42633;BME280;28261;53.304;-6.284;2023-04-29T05:03:41;101275.31;;;9.91;100.00
42633;BME280;28261;53.304;-6.284;2023-04-29T05:05:52;101276.16;;;9.92;100.00
42633;BME280;28261;53.304;-6.284;2023-04-29T05:08:00;101279.56;;;9.94;100.00
42633;BME280;28261;53.304;-6.284;2023-04-29T05:10:13;101279.31;;;9.98;100.00
42633;BME280;28261;53.304;-6.284;2023-04-29T05:12:23;101281.97;;;9.98;100.00
42633;BME280;28261;53.304;-6.284;2023-04-29T05:14:33;101282.06;;;9.97;100.00
42633;BME280;28261;53.304;-6.284;2023-04-29T05:16:37;101288.09;;;9.99;100.00
42633;BME280;28261;53.304;-6.284;2023-04-29T05:18:42;101285.44;;;9.99;100.00
42633;BME280;28261;53.304;-6.284;2023-04-29T05:20:49;101288.88;;;10.01;100.00
42633;BME280;28261;53.304;-6.284;2023-04-29T05:22:53;101287.88;;;10.04;100.00
42633;BME280;28261;53.304;-6.284;2023-04-29T05:25:00;101290.25;;;10.08;100.00
42633;BME280;28261;53.304;-6.284;2023-04-29T05:27:10;101290.00;;;10.13;100.00
42633;BME280;28261;53.304;-6.284;2023-04-29T05:29:14;101293.31;;;10.16;100.00
42633;BME280;28261;53.304;-6.284;2023-04-29T05:31:26;101293.13;;;10.20;100.00
42633;BME280;28261;53.304;-6.284;2023-04-29T05:33:35;101291.09;;;10.25;100.00
42633;BME280;28261;53.304;-6.284;2023-04-29T05:35:39;101300.66;;;10.27;100.00
42633;BME280;28261;53.304;-6.284;2023-04-29T05:37:43;101307.50;;;10.31;100.00
42633;BME280;28261;53.304;-6.284;2023-04-29T05:40:10;101306.47;;;10.34;100.00
42633;BME280;28261;53.304;-6.284;2023-04-29T05:42:15;101309.94;;;10.36;100.00
42633;BME280;28261;53.304;-6.284;2023-04-29T05:44:23;101316.00;;;10.38;100.00
42633;BME280;28261;53.304;-6.284;2023-04-29T05:46:29;101310.50;;;10.41;100.00
42633;BME280;28261;53.304;-6.284;2023-04-29T05:48:33;101310.41;;;10.43;100.00
42633;BME280;28261;53.304;-6.284;2023-04-29T05:50:37;101308.53;;;10.45;100.00
42633;BME280;28261;53.304;-6.284;2023-04-29T05:52:41;101311.09;;;10.46;100.00
42633;BME280;28261;53.304;-6.284;2023-04-29T05:54:45;101319.75;;;10.50;100.00
42633;BME280;28261;53.304;-6.284;2023-04-29T05:56:51;101321.44;;;10.51;100.00
42633;BME280;28261;53.304;-6.284;2023-04-29T05:58:55;101315.09;;;10.54;100.00
42633;BME280;28261;53.304;-6.284;2023-04-29T06:00:58;101317.59;;;10.57;100.00
42633;BME280;28261;53.304;-6.284;2023-04-29T06:03:03;101313.84;;;10.61;100.00
42633;BME280;28261;53.304;-6.284;2023-04-29T06:05:08;101315.25;;;10.66;100.00
42633;BME280;28261;53.304;-6.284;2023-04-29T06:07:27;101327.31;;;10.72;100.00
42633;BME280;28261;53.304;-6.284;2023-04-29T06:09:55;101326.28;;;10.75;100.00
42633;BME280;28261;53.304;-6.284;2023-04-29T06:12:02;101316.25;;;10.80;100.00
42633;BME280;28261;53.304;-6.284;2023-04-29T06:14:06;101320.50;;;10.82;100.00
42633;BME280;28261;53.304;-6.284;2023-04-29T06:16:10;101321.28;;;10.84;100.00
42633;BME280;28261;53.304;-6.284;2023-04-29T06:18:14;101326.50;;;10.86;100.00
42633;BME280;28261;53.304;-6.284;2023-04-29T06:20:18;101329.06;;;10.88;100.00
42633;BME280;28261;53.304;-6.284;2023-04-29T06:22:22;101323.75;;;10.88;100.00
42633;BME280;28261;53.304;-6.284;2023-04-29T06:24:28;101329.84;;;10.90;100.00
42633;BME280;28261;53.304;-6.284;2023-04-29T06:26:32;101330.69;;;10.90;100.00
42633;BME280;28261;53.304;-6.284;2023-04-29T06:28:37;101328.81;;;10.92;100.00
42633;BME280;28261;53.304;-6.284;2023-04-29T06:30:42;101329.66;;;10.93;100.00
42633;BME280;28261;53.304;-6.284;2023-04-29T06:32:48;101330.25;;;10.98;100.00
42633;BME280;28261;53.304;-6.284;2023-04-29T06:34:52;101343.31;;;11.01;100.00
42633;BME280;28261;53.304;-6.284;2023-04-29T06:37:16;101337.66;;;11.07;100.00
42633;BME280;28261;53.304;-6.284;2023-04-29T06:39:46;101345.25;;;11.13;100.00
42633;BME280;28261;53.304;-6.284;2023-04-29T06:42:08;101349.41;;;11.17;100.00
42633;BME280;28261;53.304;-6.284;2023-04-29T06:44:39;101345.63;;;11.22;100.00
42633;BME280;28261;53.304;-6.284;2023-04-29T06:47:01;101351.53;;;11.27;100.00
42633;BME280;28261;53.304;-6.284;2023-04-29T06:49:16;101351.34;;;11.30;100.00
42633;BME280;28261;53.304;-6.284;2023-04-29T06:51:21;101353.72;;;11.34;100.00
42633;BME280;28261;53.304;-6.284;2023-04-29T06:53:26;101358.06;;;11.35;100.00
42633;BME280;28261;53.304;-6.284;2023-04-29T06:55:30;101355.41;;;11.35;100.00
42633;BME280;28261;53.304;-6.284;2023-04-29T06:57:33;101365.09;;;11.37;100.00
42633;BME280;28261;53.304;-6.284;2023-04-29T06:59:39;101358.94;;;11.36;100.00
42633;BME280;28261;53.304;-6.284;2023-04-29T07:01:43;101361.31;;;11.41;100.00
42633;BME280;28261;53.304;-6.284;2023-04-29T07:03:53;101363.66;;;11.45;100.00
42633;BME280;28261;53.304;-6.284;2023-04-29T07:05:57;101357.22;;;11.49;100.00
42633;BME280;28261;53.304;-6.284;2023-04-29T07:08:01;101364.00;;;11.55;100.00
42633;BME280;28261;53.304;-6.284;2023-04-29T07:10:06;101366.16;;;11.63;100.00
42633;BME280;28261;53.304;-6.284;2023-04-29T07:12:09;101366.75;;;11.68;100.00
42633;BME280;28261;53.304;-6.284;2023-04-29T07:14:13;101370.91;;;11.72;100.00
42633;BME280;28261;53.304;-6.284;2023-04-29T07:16:19;101366.19;;;11.77;100.00
42633;BME280;28261;53.304;-6.284;2023-04-29T07:18:23;101373.00;;;11.81;100.00
42633;BME280;28261;53.304;-6.284;2023-04-29T07:20:27;101367.50;;;11.84;100.00
42633;BME280;28261;53.304;-6.284;2023-04-29T07:22:31;101372.53;;;11.89;100.00
42633;BME280;28261;53.304;-6.284;2023-04-29T07:24:35;101374.13;;;11.92;100.00
42633;BME280;28261;53.304;-6.284;2023-04-29T07:26:38;101373.19;;;11.93;100.00
42633;BME280;28261;53.304;-6.284;2023-04-29T07:28:43;101376.66;;;11.95;100.00
42633;BME280;28261;53.304;-6.284;2023-04-29T07:30:49;101374.63;;;11.98;100.00
42633;BME280;28261;53.304;-6.284;2023-04-29T07:32:54;101373.59;;;12.01;100.00
42633;BME280;28261;53.304;-6.284;2023-04-29T07:34:58;101383.06;;;12.05;100.00
42633;BME280;28261;53.304;-6.284;2023-04-29T07:37:03;101380.41;;;12.05;100.00
42633;BME280;28261;53.304;-6.284;2023-04-29T07:39:07;101379.69;;;12.03;100.00
42633;BME280;28261;53.304;-6.284;2023-04-29T07:41:13;101381.47;;;12.02;100.00
42633;BME280;28261;53.304;-6.284;2023-04-29T07:43:18;101384.78;;;12.06;100.00
42633;BME280;28261;53.304;-6.284;2023-04-29T07:45:26;101378.53;;;12.07;100.00
42633;BME280;28261;53.304;-6.284;2023-04-29T07:47:30;101384.69;;;12.08;100.00
42633;BME280;28261;53.304;-6.284;2023-04-29T07:49:36;101383.06;;;12.05;100.00
42633;BME280;28261;53.304;-6.284;2023-04-29T07:51:41;101377.56;;;12.08;100.00
42633;BME280;28261;53.304;-6.284;2023-04-29T07:53:45;101382.41;;;12.16;100.00
42633;BME280;28261;53.304;-6.284;2023-04-29T07:55:49;101386.19;;;12.26;100.00
42633;BME280;28261;53.304;-6.284;2023-04-29T07:57:55;101386.34;;;12.38;100.00
42633;BME280;28261;53.304;-6.284;2023-04-29T08:00:02;101388.53;;;12.45;100.00
42633;BME280;28261;53.304;-6.284;2023-04-29T08:02:16;101389.06;;;12.50;100.00
42633;BME280;28261;53.304;-6.284;2023-04-29T08:04:21;101384.97;;;12.59;100.00
42633;BME280;28261;53.304;-6.284;2023-04-29T08:06:35;101387.69;;;12.72;100.00
42633;BME280;28261;53.304;-6.284;2023-04-29T08:08:41;101382.69;;;12.80;100.00
42633;BME280;28261;53.304;-6.284;2023-04-29T08:10:45;101385.16;;;12.83;100.00
42633;BME280;28261;53.304;-6.284;2023-04-29T08:12:49;101387.53;;;12.88;100.00
42633;BME280;28261;53.304;-6.284;2023-04-29T08:14:53;101374.66;;;12.95;100.00
42633;BME280;28261;53.304;-6.284;2023-04-29T08:17:12;101386.59;;;13.02;100.00
42633;BME280;28261;53.304;-6.284;2023-04-29T08:19:16;101388.88;;;13.08;100.00
42633;BME280;28261;53.304;-6.284;2023-04-29T08:21:20;101390.56;;;13.09;100.00
42633;BME280;28261;53.304;-6.284;2023-04-29T08:23:27;101393.03;;;13.12;100.00
42633;BME280;28261;53.304;-6.284;2023-04-29T08:25:31;101394.44;;;13.18;100.00
42633;BME280;28261;53.304;-6.284;2023-04-29T08:27:35;101394.22;;;13.21;100.00
42633;BME280;28261;53.304;-6.284;2023-04-29T08:29:40;101398.47;;;13.24;100.00
42633;BME280;28261;53.304;-6.284;2023-04-29T08:31:44;101394.53;;;13.29;100.00
42633;BME280;28261;53.304;-6.284;2023-04-29T08:33:49;101397.84;;;13.33;100.00
42633;BME280;28261;53.304;-6.284;2023-04-29T08:35:58;101399.28;;;13.39;100.00
42633;BME280;28261;53.304;-6.284;2023-04-29T08:38:05;101400.34;;;13.36;100.00
42633;BME280;28261;53.304;-6.284;2023-04-29T08:40:12;101394.44;;;13.31;100.00
42633;BME280;28261;53.304;-6.284;2023-04-29T08:42:32;101402.41;;;13.31;100.00
42633;BME280;28261;53.304;-6.284;2023-04-29T08:44:37;101406.91;;;13.30;100.00
42633;BME280;28261;53.304;-6.284;2023-04-29T08:46:42;101401.88;;;13.26;100.00
42633;BME280;28261;53.304;-6.284;2023-04-29T08:48:47;101393.25;;;13.22;100.00
42633;BME280;28261;53.304;-6.284;2023-04-29T08:50:55;101402.09;;;13.23;100.00
42633;BME280;28261;53.304;-6.284;2023-04-29T08:53:02;101399.75;;;13.18;100.00
42633;BME280;28261;53.304;-6.284;2023-04-29T08:55:07;101399.09;;;13.14;100.00
42633;BME280;28261;53.304;-6.284;2023-04-29T08:57:13;101398.84;;;13.04;100.00
42633;BME280;28261;53.304;-6.284;2023-04-29T08:59:18;101399.34;;;12.97;100.00
42633;BME280;28261;53.304;-6.284;2023-04-29T09:01:24;101395.09;;;12.94;100.00
42633;BME280;28261;53.304;-6.284;2023-04-29T09:03:33;101396.25;;;12.90;100.00
42633;BME280;28261;53.304;-6.284;2023-04-29T09:05:40;101396.25;;;12.90;100.00
42633;BME280;28261;53.304;-6.284;2023-04-29T09:07:45;101405.66;;;12.96;100.00
42633;BME280;28261;53.304;-6.284;2023-04-29T09:09:50;101404.06;;;13.06;100.00
42633;BME280;28261;53.304;-6.284;2023-04-29T09:11:56;101403.03;;;13.21;100.00
42633;BME280;28261;53.304;-6.284;2023-04-29T09:14:02;101403.53;;;13.41;100.00
42633;BME280;28261;53.304;-6.284;2023-04-29T09:16:10;101406.88;;;13.58;100.00
42633;BME280;28261;53.304;-6.284;2023-04-29T09:18:41;101395.13;;;13.73;100.00
42633;BME280;28261;53.304;-6.284;2023-04-29T09:20:45;101400.88;;;13.93;100.00
42633;BME280;28261;53.304;-6.284;2023-04-29T09:22:52;101392.72;;;14.20;100.00
42633;BME280;28261;53.304;-6.284;2023-04-29T09:25:11;101396.09;;;14.35;100.00
42633;BME280;28261;53.304;-6.284;2023-04-29T09:27:25;101394.25;;;14.48;100.00
42633;BME280;28261;53.304;-6.284;2023-04-29T09:29:32;101393.66;;;14.69;100.00
42633;BME280;28261;53.304;-6.284;2023-04-29T09:31:38;101396.19;;;14.83;100.00
42633;BME280;28261;53.304;-6.284;2023-04-29T09:33:51;101398.66;;;14.98;100.00
42633;BME280;28261;53.304;-6.284;2023-04-29T09:35:56;101399.06;;;15.16;100.00
42633;BME280;28261;53.304;-6.284;2023-04-29T09:38:11;101399.19;;;15.14;100.00
42633;BME280;28261;53.304;-6.284;2023-04-29T09:40:34;101398.81;;;15.07;100.00
42633;BME280;28261;53.304;-6.284;2023-04-29T09:42:58;101401.03;;;14.89;100.00
42633;BME280;28261;53.304;-6.284;2023-04-29T09:45:06;101407.75;;;14.71;100.00
42633;BME280;28261;53.304;-6.284;2023-04-29T09:47:14;101404.03;;;14.61;100.00
42633;BME280;28261;53.304;-6.284;2023-04-29T09:49:23;101407.16;;;14.54;100.00
42633;BME280;28261;53.304;-6.284;2023-04-29T09:51:27;101405.44;;;14.53;100.00
42633;BME280;28261;53.304;-6.284;2023-04-29T09:53:34;101408.00;;;14.55;100.00
42633;BME280;28261;53.304;-6.284;2023-04-29T09:55:58;101406.63;;;14.49;100.00
42633;BME280;28261;53.304;-6.284;2023-04-29T09:58:03;101400.53;;;14.47;100.00
42633;BME280;28261;53.304;-6.284;2023-04-29T10:00:11;101407.28;;;14.40;100.00
42633;BME280;28261;53.304;-6.284;2023-04-29T10:02:17;101408.59;;;14.34;100.00
42633;BME280;28261;53.304;-6.284;2023-04-29T10:04:23;101400.72;;;14.20;100.00
42633;BME280;28261;53.304;-6.284;2023-04-29T10:06:29;101407.69;;;14.10;100.00
42633;BME280;28261;53.304;-6.284;2023-04-29T10:08:34;101408.44;;;13.99;100.00
42633;BME280;28261;53.304;-6.284;2023-04-29T10:10:39;101399.19;;;13.92;100.00
42633;BME280;28261;53.304;-6.284;2023-04-29T10:12:44;101408.78;;;13.81;100.00
42633;BME280;28261;53.304;-6.284;2023-04-29T10:14:50;101417.41;;;13.72;100.00
42633;BME280;28261;53.304;-6.284;2023-04-29T10:17:02;101407.81;;;13.69;100.00
42633;BME280;28261;53.304;-6.284;2023-04-29T10:19:14;101416.97;;;13.65;100.00
42633;BME280;28261;53.304;-6.284;2023-04-29T10:21:27;101419.22;;;13.59;100.00
42633;BME280;28261;53.304;-6.284;2023-04-29T10:23:33;101422.31;;;13.52;100.00
42633;BME280;28261;53.304;-6.284;2023-04-29T10:25:37;101419.53;;;13.41;100.00
42633;BME280;28261;53.304;-6.284;2023-04-29T10:27:44;101424.97;;;13.40;100.00
42633;BME280;28261;53.304;-6.284;2023-04-29T10:29:49;101424.09;;;13.39;100.00
42633;BME280;28261;53.304;-6.284;2023-04-29T10:31:55;101422.72;;;13.46;100.00
42633;BME280;28261;53.304;-6.284;2023-04-29T10:34:06;101423.69;;;13.45;100.00
42633;BME280;28261;53.304;-6.284;2023-04-29T10:36:12;101425.22;;;13.35;100.00
42633;BME280;28261;53.304;-6.284;2023-04-29T10:38:23;101428.31;;;13.29;100.00
42633;BME280;28261;53.304;-6.284;2023-04-29T10:40:35;101429.59;;;13.23;100.00
42633;BME280;28261;53.304;-6.284;2023-04-29T10:42:43;101434.91;;;13.23;100.00
42633;BME280;28261;53.304;-6.284;2023-04-29T10:45:16;101430.44;;;13.24;100.00
42633;BME280;28261;53.304;-6.284;2023-04-29T10:47:21;101435.31;;;13.30;100.00
42633;BME280;28261;53.304;-6.284;2023-04-29T10:49:34;101428.31;;;13.29;100.00
42633;BME280;28261;53.304;-6.284;2023-04-29T10:51:41;101430.31;;;13.25;100.00
42633;BME280;28261;53.304;-6.284;2023-04-29T10:53:58;101427.88;;;13.22;100.00
42633;BME280;28261;53.304;-6.284;2023-04-29T10:56:08;101437.66;;;13.21;100.00